createdAt,value
2018-03-28T00:01:32.596Z,79.40
2018-03-28T00:04:00.691Z,79.40
2018-03-28T00:06:28.192Z,79.30
2018-03-28T00:08:55.719Z,79.20
2018-03-28T00:11:23.306Z,78.90
2018-03-28T01:17:29.632Z,75.90
2018-03-28T02:12:14.212Z,75.20
2018-03-28T02:17:50.597Z,75.40
2018-03-28T03:20:53.556Z,78.00
2018-03-28T03:23:21.254Z,78.20
2018-03-28T03:25:48.867Z,78.00
2018-03-28T03:28:16.395Z,78.20
2018-03-28T03:30:44.705Z,78.80
2018-03-28T03:33:12.260Z,78.80
2018-03-28T03:35:39.791Z,78.80
2018-03-28T03:38:08.097Z,79.00
2018-03-28T03:40:35.828Z,79.00
2018-03-28T03:43:04.228Z,79.10
2018-03-28T03:45:31.771Z,79.10
2018-03-28T03:48:00.072Z,79.20
2018-03-28T03:50:27.597Z,79.20
2018-03-28T03:52:55.146Z,79.60
2018-03-28T03:55:23.166Z,80.10
2018-03-28T03:57:50.769Z,81.00
2018-03-28T04:00:18.380Z,81.30
2018-03-28T04:02:45.908Z,81.50
2018-03-28T04:05:14.234Z,81.90
2018-03-28T04:07:41.769Z,81.90
2018-03-28T04:10:09.329Z,82.00
2018-03-28T04:12:43.209Z,82.10
2018-03-28T04:21:11.086Z,82.80
2018-03-28T05:18:30.299Z,81.70
2018-03-28T06:12:36.961Z,78.50
2018-03-28T06:18:20.303Z,78.10
2018-03-28T06:26:52.877Z,78.00
2018-03-28T06:29:20.660Z,77.80
2018-03-28T06:31:48.224Z,77.80
2018-03-28T06:34:15.785Z,76.90
2018-03-28T06:36:43.332Z,76.50
2018-03-28T06:39:11.627Z,76.00
2018-03-28T06:41:39.176Z,76.00
2018-03-28T06:44:06.801Z,76.00
2018-03-28T06:46:34.564Z,75.80
2018-03-28T06:49:02.108Z,75.60
2018-03-28T06:51:29.651Z,74.80
2018-03-28T06:53:57.196Z,75.10
2018-03-28T06:56:24.736Z,74.00
2018-03-28T06:58:52.280Z,73.60
2018-03-28T07:01:20.611Z,72.80
2018-03-28T07:03:48.229Z,72.80
2018-03-28T07:06:16.597Z,72.20
2018-03-28T07:08:44.915Z,72.00
2018-03-28T07:11:12.467Z,71.90
2018-03-28T08:12:20.105Z,64.60
2018-03-28T08:14:47.646Z,65.00
2018-03-28T08:17:15.218Z,64.40
2018-03-28T08:22:35.884Z,64.50
2018-03-28T08:25:04.248Z,64.60
2018-03-28T08:27:31.949Z,64.50
2018-03-28T08:29:59.503Z,63.50
2018-03-28T08:32:27.032Z,63.40
2018-03-28T08:34:54.565Z,64.30
2018-03-28T08:37:22.127Z,65.00
2018-03-28T08:39:49.664Z,64.60
2018-03-28T08:42:17.218Z,65.10
2018-03-28T08:44:44.746Z,64.20
2018-03-28T08:47:13.074Z,64.50
2018-03-28T08:49:40.677Z,64.40
2018-03-28T08:52:09.059Z,64.40
2018-03-28T08:54:36.650Z,64.40
2018-03-28T08:57:04.292Z,63.10
2018-03-28T08:59:32.591Z,63.50
2018-03-28T09:02:00.128Z,63.50
2018-03-28T09:04:28.684Z,63.30
2018-03-28T09:06:56.833Z,62.70
2018-03-28T09:09:24.369Z,62.40
2018-03-28T09:11:51.939Z,62.80
2018-03-28T11:24:11.483Z,59.50
2018-03-28T11:26:39.897Z,59.20
2018-03-28T11:29:07.457Z,59.20
2018-03-28T11:31:35.009Z,58.80
2018-03-28T11:34:02.590Z,58.50
2018-03-28T11:36:30.135Z,58.40
2018-03-28T11:38:57.698Z,58.40
2018-03-28T11:41:25.268Z,57.80
2018-03-28T11:43:53.217Z,57.90
2018-03-28T11:46:20.797Z,58.10
2018-03-28T11:48:48.349Z,58.40
2018-03-28T11:51:15.894Z,58.50
2018-03-28T11:53:43.435Z,58.50
2018-03-28T11:56:11.743Z,58.50
2018-03-28T11:58:39.295Z,58.40
2018-03-28T12:01:07.051Z,58.30
2018-03-28T12:03:34.616Z,58.80
2018-03-28T12:06:02.168Z,59.10
2018-03-28T12:08:29.704Z,59.20
2018-03-28T12:10:58.028Z,59.60
2018-03-28T12:13:25.568Z,59.60
2018-03-28T12:18:56.448Z,59.60
2018-03-28T12:21:24.003Z,59.70
2018-03-28T13:12:36.954Z,54.50
2018-03-28T13:21:10.653Z,54.10
2018-03-28T15:14:05.893Z,51.10
2018-03-28T15:16:33.469Z,51.40
2018-03-28T16:40:52.077Z,54.10
2018-03-28T16:43:19.632Z,54.70
2018-03-28T16:45:47.188Z,54.80
2018-03-28T16:48:14.737Z,54.70
2018-03-28T16:50:42.280Z,54.80
2018-03-28T16:53:09.827Z,54.80
2018-03-28T16:55:38.164Z,55.30
2018-03-28T16:58:06.998Z,55.30
2018-03-28T17:00:35.325Z,54.80
2018-03-28T17:03:02.897Z,54.80
2018-03-28T17:05:30.921Z,56.40
2018-03-28T17:07:58.502Z,59.50
2018-03-28T17:10:26.059Z,61.70
2018-03-28T17:12:53.613Z,62.80
2018-03-28T17:18:26.933Z,63.80
2018-03-28T17:21:04.559Z,65.20
2018-03-28T18:15:12.623Z,68.40
2018-03-28T18:20:32.791Z,68.20
2018-03-28T18:23:00.330Z,68.00
2018-03-28T18:25:28.668Z,66.90
2018-03-28T18:27:56.204Z,66.90
2018-03-28T18:30:23.782Z,66.50
2018-03-28T18:32:51.358Z,66.50
2018-03-28T18:35:18.906Z,66.20
2018-03-28T18:37:46.521Z,65.30
2018-03-28T18:40:14.077Z,64.20
2018-03-28T18:42:41.636Z,63.30
2018-03-28T18:45:09.937Z,60.50
2018-03-28T18:47:37.556Z,60.50
2018-03-28T18:50:05.084Z,59.60
2018-03-28T18:52:32.830Z,59.40
2018-03-28T18:55:00.431Z,58.90
2018-03-28T18:57:27.980Z,58.50
2018-03-28T18:59:55.533Z,58.50
2018-03-28T19:02:23.098Z,58.50
2018-03-28T19:04:50.645Z,58.70
2018-03-28T19:07:18.179Z,58.70
2018-03-28T19:09:45.797Z,58.60
2018-03-28T19:12:14.154Z,58.50
2018-03-28T19:14:41.704Z,58.50
2018-03-28T20:15:08.081Z,75.00
2018-03-28T20:17:36.416Z,76.00
2018-03-28T22:18:16.083Z,93.60
2018-03-28T22:20:46.065Z,93.30
2018-03-28T23:12:13.790Z,94.80
